sensor_id;sensor_type;location;lat;lon;timestamp;temperature;humidity
25918;DHT22;13899;51.174;4.456;2023-04-01T00:00:24;9.90;99.90
25918;DHT22;13899;51.174;4.456;2023-04-01T00:02:49;9.90;99.90
25918;DHT22;13899;51.174;4.456;2023-04-01T00:05:16;9.90;99.90
25918;DHT22;13899;51.174;4.456;2023-04-01T00:07:43;10.00;99.90
25918;DHT22;13899;51.174;4.456;2023-04-01T00:10:11;9.90;99.90
25918;DHT22;13899;51.174;4.456;2023-04-01T00:12:37;10.00;99.90
25918;DHT22;13899;51.174;4.456;2023-04-01T00:15:04;10.00;99.90
25918;DHT22;13899;51.174;4.456;2023-04-01T00:17:29;10.00;99.90
25918;DHT22;13899;51.174;4.456;2023-04-01T00:19:56;10.00;99.90
25918;DHT22;13899;51.174;4.456;2023-04-01T00:22:23;9.90;99.90
25918;DHT22;13899;51.174;4.456;2023-04-01T00:24:49;10.00;99.90
25918;DHT22;13899;51.174;4.456;2023-04-01T00:27:15;9.80;99.90
25918;DHT22;13899;51.174;4.456;2023-04-01T00:29:45;9.90;99.90
25918;DHT22;13899;51.174;4.456;2023-04-01T00:32:11;10.10;99.90
25918;DHT22;13899;51.174;4.456;2023-04-01T00:34:37;10.10;99.90
25918;DHT22;13899;51.174;4.456;2023-04-01T00:37:03;10.00;99.90
25918;DHT22;13899;51.174;4.456;2023-04-01T00:39:30;9.90;99.90
25918;DHT22;13899;51.174;4.456;2023-04-01T00:41:56;10.00;99.90
25918;DHT22;13899;51.174;4.456;2023-04-01T00:44:24;10.00;99.90
25918;DHT22;13899;51.174;4.456;2023-04-01T00:46:50;9.90;99.90
25918;DHT22;13899;51.174;4.456;2023-04-01T00:49:17;10.10;99.90
25918;DHT22;13899;51.174;4.456;2023-04-01T00:51:45;10.00;99.90
25918;DHT22;13899;51.174;4.456;2023-04-01T00:54:14;10.10;99.90
25918;DHT22;13899;51.174;4.456;2023-04-01T00:56:45;10.00;99.90
25918;DHT22;13899;51.174;4.456;2023-04-01T00:59:18;10.00;99.90
25918;DHT22;13899;51.174;4.456;2023-04-01T01:01:46;10.00;99.90
25918;DHT22;13899;51.174;4.456;2023-04-01T01:04:32;10.10;99.90
25918;DHT22;13899;51.174;4.456;2023-04-01T01:07:09;10.00;99.90
25918;DHT22;13899;51.174;4.456;2023-04-01T01:10:16;10.10;99.90
25918;DHT22;13899;51.174;4.456;2023-04-01T01:15:37;10.30;99.90
25918;DHT22;13899;51.174;4.456;2023-04-01T01:18:38;10.10;99.90
25918;DHT22;13899;51.174;4.456;2023-04-01T01:27:11;10.10;99.90
25918;DHT22;13899;51.174;4.456;2023-04-01T01:37:42;10.20;99.90
25918;DHT22;13899;51.174;4.456;2023-04-01T01:40:10;10.40;99.90
25918;DHT22;13899;51.174;4.456;2023-04-01T01:42:39;10.20;99.90
25918;DHT22;13899;51.174;4.456;2023-04-01T01:45:06;10.20;99.90
25918;DHT22;13899;51.174;4.456;2023-04-01T01:47:34;10.10;99.90
25918;DHT22;13899;51.174;4.456;2023-04-01T01:50:01;10.00;99.90
25918;DHT22;13899;51.174;4.456;2023-04-01T01:52:29;10.00;99.90
25918;DHT22;13899;51.174;4.456;2023-04-01T01:54:56;10.00;99.90
25918;DHT22;13899;51.174;4.456;2023-04-01T01:57:32;10.00;99.90
25918;DHT22;13899;51.174;4.456;2023-04-01T02:00:03;10.00;99.90
25918;DHT22;13899;51.174;4.456;2023-04-01T02:02:33;9.90;99.90
25918;DHT22;13899;51.174;4.456;2023-04-01T02:04:58;9.90;99.90
25918;DHT22;13899;51.174;4.456;2023-04-01T02:07:30;9.90;99.90
25918;DHT22;13899;51.174;4.456;2023-04-01T02:09:57;10.00;99.90
25918;DHT22;13899;51.174;4.456;2023-04-01T02:12:24;9.90;99.90
25918;DHT22;13899;51.174;4.456;2023-04-01T02:17:47;9.80;99.90
25918;DHT22;13899;51.174;4.456;2023-04-01T02:20:20;9.90;99.90
25918;DHT22;13899;51.174;4.456;2023-04-01T02:22:50;9.80;99.90
25918;DHT22;13899;51.174;4.456;2023-04-01T02:25:22;9.80;99.90
25918;DHT22;13899;51.174;4.456;2023-04-01T02:27:49;9.80;99.90
25918;DHT22;13899;51.174;4.456;2023-04-01T02:30:17;9.70;99.90
25918;DHT22;13899;51.174;4.456;2023-04-01T02:32:43;9.80;99.90
25918;DHT22;13899;51.174;4.456;2023-04-01T02:35:10;9.70;99.90
25918;DHT22;13899;51.174;4.456;2023-04-01T02:37:37;9.70;99.90
25918;DHT22;13899;51.174;4.456;2023-04-01T02:40:05;9.70;99.90
25918;DHT22;13899;51.174;4.456;2023-04-01T02:42:33;9.70;99.90
25918;DHT22;13899;51.174;4.456;2023-04-01T02:44:58;9.70;99.90
25918;DHT22;13899;51.174;4.456;2023-04-01T02:47:24;9.80;99.90
25918;DHT22;13899;51.174;4.456;2023-04-01T02:49:50;9.80;99.90
25918;DHT22;13899;51.174;4.456;2023-04-01T02:52:15;9.90;99.90
25918;DHT22;13899;51.174;4.456;2023-04-01T02:54:41;9.80;99.90
25918;DHT22;13899;51.174;4.456;2023-04-01T02:57:06;9.80;99.90
25918;DHT22;13899;51.174;4.456;2023-04-01T02:59:32;9.70;99.90
25918;DHT22;13899;51.174;4.456;2023-04-01T03:01:58;9.70;99.90
25918;DHT22;13899;51.174;4.456;2023-04-01T03:04:24;9.70;99.90
25918;DHT22;13899;51.174;4.456;2023-04-01T03:06:49;9.90;99.90
25918;DHT22;13899;51.174;4.456;2023-04-01T03:09:16;9.80;99.90
25918;DHT22;13899;51.174;4.456;2023-04-01T03:11:42;9.90;99.90
25918;DHT22;13899;51.174;4.456;2023-04-01T03:14:07;9.90;99.90
25918;DHT22;13899;51.174;4.456;2023-04-01T03:16:33;9.90;99.90
25918;DHT22;13899;51.174;4.456;2023-04-01T03:18:58;9.90;99.90
25918;DHT22;13899;51.174;4.456;2023-04-01T03:21:27;9.90;99.90
25918;DHT22;13899;51.174;4.456;2023-04-01T03:23:53;9.70;99.90
25918;DHT22;13899;51.174;4.456;2023-04-01T03:26:19;9.60;99.90
25918;DHT22;13899;51.174;4.456;2023-04-01T03:28:45;9.90;99.90
25918;DHT22;13899;51.174;4.456;2023-04-01T03:31:11;9.70;99.90
25918;DHT22;13899;51.174;4.456;2023-04-01T03:33:37;9.70;99.90
25918;DHT22;13899;51.174;4.456;2023-04-01T03:36:03;9.70;99.90
25918;DHT22;13899;51.174;4.456;2023-04-01T03:38:32;9.80;99.90
25918;DHT22;13899;51.174;4.456;2023-04-01T03:40:58;9.70;99.90
25918;DHT22;13899;51.174;4.456;2023-04-01T03:43:24;10.00;99.90
25918;DHT22;13899;51.174;4.456;2023-04-01T03:45:50;9.80;99.90
25918;DHT22;13899;51.174;4.456;2023-04-01T03:48:17;9.70;99.90
25918;DHT22;13899;51.174;4.456;2023-04-01T03:50:43;9.70;99.90
25918;DHT22;13899;51.174;4.456;2023-04-01T03:53:09;9.70;99.90
25918;DHT22;13899;51.174;4.456;2023-04-01T03:55:38;9.70;99.90
25918;DHT22;13899;51.174;4.456;2023-04-01T03:58:05;9.80;99.90
25918;DHT22;13899;51.174;4.456;2023-04-01T04:00:31;9.80;99.90
25918;DHT22;13899;51.174;4.456;2023-04-01T04:02:57;9.80;99.90
25918;DHT22;13899;51.174;4.456;2023-04-01T04:05:24;9.80;99.90
25918;DHT22;13899;51.174;4.456;2023-04-01T04:07:50;9.80;99.90
25918;DHT22;13899;51.174;4.456;2023-04-01T04:10:15;9.80;99.90
25918;DHT22;13899;51.174;4.456;2023-04-01T04:12:41;9.90;99.90
25918;DHT22;13899;51.174;4.456;2023-04-01T04:15:07;9.80;99.90
25918;DHT22;13899;51.174;4.456;2023-04-01T04:17:33;9.80;99.90
25918;DHT22;13899;51.174;4.456;2023-04-01T04:19:59;9.80;99.90
25918;DHT22;13899;51.174;4.456;2023-04-01T04:22:25;9.70;99.90
25918;DHT22;13899;51.174;4.456;2023-04-01T04:24:51;9.60;99.90
25918;DHT22;13899;51.174;4.456;2023-04-01T04:27:16;9.70;99.90
25918;DHT22;13899;51.174;4.456;2023-04-01T04:29:42;9.60;99.90
25918;DHT22;13899;51.174;4.456;2023-04-01T04:32:08;9.50;99.90
25918;DHT22;13899;51.174;4.456;2023-04-01T04:34:33;9.60;99.90
25918;DHT22;13899;51.174;4.456;2023-04-01T04:36:59;9.60;99.90
25918;DHT22;13899;51.174;4.456;2023-04-01T04:39:25;9.70;99.90
25918;DHT22;13899;51.174;4.456;2023-04-01T04:41:50;9.70;99.90
25918;DHT22;13899;51.174;4.456;2023-04-01T04:44:16;9.80;99.90
25918;DHT22;13899;51.174;4.456;2023-04-01T04:46:42;9.60;99.90
25918;DHT22;13899;51.174;4.456;2023-04-01T04:49:07;9.60;99.90
25918;DHT22;13899;51.174;4.456;2023-04-01T04:51:33;9.60;99.90
25918;DHT22;13899;51.174;4.456;2023-04-01T04:54:04;9.70;99.90
25918;DHT22;13899;51.174;4.456;2023-04-01T04:56:30;9.60;99.90
25918;DHT22;13899;51.174;4.456;2023-04-01T04:58:57;9.70;99.90
25918;DHT22;13899;51.174;4.456;2023-04-01T05:01:23;9.80;99.90
25918;DHT22;13899;51.174;4.456;2023-04-01T05:03:48;9.80;99.90
25918;DHT22;13899;51.174;4.456;2023-04-01T05:06:15;9.60;99.90
25918;DHT22;13899;51.174;4.456;2023-04-01T05:08:42;9.50;99.90
25918;DHT22;13899;51.174;4.456;2023-04-01T05:11:14;9.60;99.90
25918;DHT22;13899;51.174;4.456;2023-04-01T05:13:41;9.60;99.90
25918;DHT22;13899;51.174;4.456;2023-04-01T05:16:14;9.60;99.90
25918;DHT22;13899;51.174;4.456;2023-04-01T05:18:40;9.50;99.90
25918;DHT22;13899;51.174;4.456;2023-04-01T05:21:08;9.50;99.90
25918;DHT22;13899;51.174;4.456;2023-04-01T05:23:35;9.50;99.90
25918;DHT22;13899;51.174;4.456;2023-04-01T05:26:05;9.50;99.90
25918;DHT22;13899;51.174;4.456;2023-04-01T05:28:31;9.60;99.90
25918;DHT22;13899;51.174;4.456;2023-04-01T05:30:59;9.70;99.90
25918;DHT22;13899;51.174;4.456;2023-04-01T05:33:29;9.60;99.90
25918;DHT22;13899;51.174;4.456;2023-04-01T05:35:55;9.50;99.90
25918;DHT22;13899;51.174;4.456;2023-04-01T05:38:21;9.70;99.90
25918;DHT22;13899;51.174;4.456;2023-04-01T05:40:47;9.60;99.90
25918;DHT22;13899;51.174;4.456;2023-04-01T05:43:31;9.50;99.90
25918;DHT22;13899;51.174;4.456;2023-04-01T05:46:02;9.50;99.90
25918;DHT22;13899;51.174;4.456;2023-04-01T05:48:29;9.70;99.90
25918;DHT22;13899;51.174;4.456;2023-04-01T05:50:56;9.50;99.90
25918;DHT22;13899;51.174;4.456;2023-04-01T05:53:22;9.50;99.90
25918;DHT22;13899;51.174;4.456;2023-04-01T05:55:48;9.40;99.90
25918;DHT22;13899;51.174;4.456;2023-04-01T05:58:20;9.40;99.90
25918;DHT22;13899;51.174;4.456;2023-04-01T06:00:48;9.40;99.90
25918;DHT22;13899;51.174;4.456;2023-04-01T06:03:18;9.60;99.90
25918;DHT22;13899;51.174;4.456;2023-04-01T06:06:25;9.70;99.90
25918;DHT22;13899;51.174;4.456;2023-04-01T06:08:56;9.90;99.90
25918;DHT22;13899;51.174;4.456;2023-04-01T06:12:15;10.00;99.90
25918;DHT22;13899;51.174;4.456;2023-04-01T06:14:49;10.20;99.90
25918;DHT22;13899;51.174;4.456;2023-04-01T06:23:46;9.70;99.90
25918;DHT22;13899;51.174;4.456;2023-04-01T06:26:37;9.80;99.90
25918;DHT22;13899;51.174;4.456;2023-04-01T06:32:14;9.60;99.90
25918;DHT22;13899;51.174;4.456;2023-04-01T06:39:04;9.70;99.90
25918;DHT22;13899;51.174;4.456;2023-04-01T06:53:08;9.70;99.90
25918;DHT22;13899;51.174;4.456;2023-04-01T06:55:56;10.00;99.90
25918;DHT22;13899;51.174;4.456;2023-04-01T06:58:26;9.90;99.90
25918;DHT22;13899;51.174;4.456;2023-04-01T07:01:03;10.10;99.90
25918;DHT22;13899;51.174;4.456;2023-04-01T07:03:41;9.90;99.90
25918;DHT22;13899;51.174;4.456;2023-04-01T07:06:28;9.90;99.90
25918;DHT22;13899;51.174;4.456;2023-04-01T07:09:02;9.80;99.90
25918;DHT22;13899;51.174;4.456;2023-04-01T07:11:33;9.70;99.90
25918;DHT22;13899;51.174;4.456;2023-04-01T07:17:06;9.70;99.90
25918;DHT22;13899;51.174;4.456;2023-04-01T07:19:53;9.80;99.90
25918;DHT22;13899;51.174;4.456;2023-04-01T07:22:40;9.80;99.90
25918;DHT22;13899;51.174;4.456;2023-04-01T07:25:27;10.00;99.90
25918;DHT22;13899;51.174;4.456;2023-04-01T07:28:01;9.90;99.90
25918;DHT22;13899;51.174;4.456;2023-04-01T07:30:30;10.00;99.90
25918;DHT22;13899;51.174;4.456;2023-04-01T07:35:57;10.10;99.90
25918;DHT22;13899;51.174;4.456;2023-04-01T07:44:22;10.00;99.90
25918;DHT22;13899;51.174;4.456;2023-04-01T07:47:06;10.00;99.90
25918;DHT22;13899;51.174;4.456;2023-04-01T07:58:24;10.00;99.90
25918;DHT22;13899;51.174;4.456;2023-04-01T08:09:58;9.70;99.90
25918;DHT22;13899;51.174;4.456;2023-04-01T08:18:09;10.00;99.90
25918;DHT22;13899;51.174;4.456;2023-04-01T08:21:10;9.90;99.90
25918;DHT22;13899;51.174;4.456;2023-04-01T08:23:40;10.20;99.90
25918;DHT22;13899;51.174;4.456;2023-04-01T08:26:41;10.10;99.90
25918;DHT22;13899;51.174;4.456;2023-04-01T08:34:20;9.90;99.90
25918;DHT22;13899;51.174;4.456;2023-04-01T08:37:14;10.10;99.90
25918;DHT22;13899;51.174;4.456;2023-04-01T08:39:58;10.20;99.90
25918;DHT22;13899;51.174;4.456;2023-04-01T08:50:57;10.60;99.90
25918;DHT22;13899;51.174;4.456;2023-04-01T09:17:09;10.30;99.90
25918;DHT22;13899;51.174;4.456;2023-04-01T09:20:15;10.50;99.90
25918;DHT22;13899;51.174;4.456;2023-04-01T09:33:25;10.20;99.90
25918;DHT22;13899;51.174;4.456;2023-04-01T09:45:04;10.80;99.90
25918;DHT22;13899;51.174;4.456;2023-04-01T10:15:08;10.60;99.90
25918;DHT22;13899;51.174;4.456;2023-04-01T10:18:14;10.90;99.90
25918;DHT22;13899;51.174;4.456;2023-04-01T10:21:30;10.70;99.90
25918;DHT22;13899;51.174;4.456;2023-04-01T10:24:27;10.80;99.90
25918;DHT22;13899;51.174;4.456;2023-04-01T10:27:21;11.20;99.90
25918;DHT22;13899;51.174;4.456;2023-04-01T10:30:19;11.10;99.90
25918;DHT22;13899;51.174;4.456;2023-04-01T10:39:20;10.80;99.90
25918;DHT22;13899;51.174;4.456;2023-04-01T11:10:21;10.90;99.90
25918;DHT22;13899;51.174;4.456;2023-04-01T11:32:34;11.10;99.90
25918;DHT22;13899;51.174;4.456;2023-04-01T11:40:31;10.80;99.90
25918;DHT22;13899;51.174;4.456;2023-04-01T11:45:58;10.60;99.90
25918;DHT22;13899;51.174;4.456;2023-04-01T11:57:43;11.20;99.90
25918;DHT22;13899;51.174;4.456;2023-04-01T12:03:27;10.90;99.90
25918;DHT22;13899;51.174;4.456;2023-04-01T12:14:14;11.60;99.90
25918;DHT22;13899;51.174;4.456;2023-04-01T12:30:58;11.60;99.90
25918;DHT22;13899;51.174;4.456;2023-04-01T12:38:51;12.20;99.90
25918;DHT22;13899;51.174;4.456;2023-04-01T12:56:13;11.80;99.90
25918;DHT22;13899;51.174;4.456;2023-04-01T13:07:31;12.30;99.90
25918;DHT22;13899;51.174;4.456;2023-04-01T13:10:26;12.00;99.90
25918;DHT22;13899;51.174;4.456;2023-04-01T13:13:39;11.60;99.90
25918;DHT22;13899;51.174;4.456;2023-04-01T13:19:17;11.50;99.90
25918;DHT22;13899;51.174;4.456;2023-04-01T13:27:53;10.90;99.90
25918;DHT22;13899;51.174;4.456;2023-04-01T13:30:48;11.30;99.90
25918;DHT22;13899;51.174;4.456;2023-04-01T14:10:05;11.30;99.90
25918;DHT22;13899;51.174;4.456;2023-04-01T14:13:01;11.70;99.90
25918;DHT22;13899;51.174;4.456;2023-04-01T14:16:13;11.50;99.90
25918;DHT22;13899;51.174;4.456;2023-04-01T14:19:03;11.40;99.90
25918;DHT22;13899;51.174;4.456;2023-04-01T14:22:03;11.40;99.90
25918;DHT22;13899;51.174;4.456;2023-04-01T14:30:10;11.70;99.90
25918;DHT22;13899;51.174;4.456;2023-04-01T14:32:56;11.60;99.90
25918;DHT22;13899;51.174;4.456;2023-04-01T14:35:48;12.20;99.90
25918;DHT22;13899;51.174;4.456;2023-04-01T14:38:24;12.10;99.90
25918;DHT22;13899;51.174;4.456;2023-04-01T14:41:17;12.00;99.90
25918;DHT22;13899;51.174;4.456;2023-04-01T14:46:58;11.50;99.90
25918;DHT22;13899;51.174;4.456;2023-04-01T14:49:50;11.10;99.90
25918;DHT22;13899;51.174;4.456;2023-04-01T14:52:33;11.50;99.90
25918;DHT22;13899;51.174;4.456;2023-04-01T14:55:00;11.50;99.90
25918;DHT22;13899;51.174;4.456;2023-04-01T14:57:30;11.70;99.90
25918;DHT22;13899;51.174;4.456;2023-04-01T15:00:17;11.70;99.90
25918;DHT22;13899;51.174;4.456;2023-04-01T15:05:51;11.20;99.90
25918;DHT22;13899;51.174;4.456;2023-04-01T15:38:51;11.10;99.90
25918;DHT22;13899;51.174;4.456;2023-04-01T15:53:17;11.00;99.90
25918;DHT22;13899;51.174;4.456;2023-04-01T16:11:00;10.90;99.90
25918;DHT22;13899;51.174;4.456;2023-04-01T16:25:07;11.40;99.90
25918;DHT22;13899;51.174;4.456;2023-04-01T16:27:51;11.20;99.90
25918;DHT22;13899;51.174;4.456;2023-04-01T16:30:43;10.90;99.90
25918;DHT22;13899;51.174;4.456;2023-04-01T16:44:05;10.70;99.90
25918;DHT22;13899;51.174;4.456;2023-04-01T16:49:17;10.90;99.90
25918;DHT22;13899;51.174;4.456;2023-04-01T16:55:16;10.70;99.90
25918;DHT22;13899;51.174;4.456;2023-04-01T16:57:48;10.70;99.90
25918;DHT22;13899;51.174;4.456;2023-04-01T17:00:36;10.80;99.90
25918;DHT22;13899;51.174;4.456;2023-04-01T17:03:12;10.50;99.90
25918;DHT22;13899;51.174;4.456;2023-04-01T17:05:54;10.40;99.90
25918;DHT22;13899;51.174;4.456;2023-04-01T17:08:56;10.70;99.90
25918;DHT22;13899;51.174;4.456;2023-04-01T17:14:23;10.90;99.90
25918;DHT22;13899;51.174;4.456;2023-04-01T17:25:48;10.80;99.90
25918;DHT22;13899;51.174;4.456;2023-04-01T17:31:30;10.40;99.90
25918;DHT22;13899;51.174;4.456;2023-04-01T17:37:09;10.60;99.90
25918;DHT22;13899;51.174;4.456;2023-04-01T17:39:44;10.70;99.90
25918;DHT22;13899;51.174;4.456;2023-04-01T17:42:39;10.60;99.90
25918;DHT22;13899;51.174;4.456;2023-04-01T17:47:49;10.50;99.90
25918;DHT22;13899;51.174;4.456;2023-04-01T17:50:24;10.40;99.90
25918;DHT22;13899;51.174;4.456;2023-04-01T17:53:14;10.50;99.90
25918;DHT22;13899;51.174;4.456;2023-04-01T18:06:34;10.60;99.90
25918;DHT22;13899;51.174;4.456;2023-04-01T18:09:33;10.60;99.90
25918;DHT22;13899;51.174;4.456;2023-04-01T18:15:03;10.80;99.90
25918;DHT22;13899;51.174;4.456;2023-04-01T18:17:42;11.00;99.90
25918;DHT22;13899;51.174;4.456;2023-04-01T18:22:44;11.00;99.90
25918;DHT22;13899;51.174;4.456;2023-04-01T18:25:36;10.90;99.90
25918;DHT22;13899;51.174;4.456;2023-04-01T18:31:19;11.20;99.90
25918;DHT22;13899;51.174;4.456;2023-04-01T18:36:35;11.50;99.90
25918;DHT22;13899;51.174;4.456;2023-04-01T18:39:16;11.20;99.90
25918;DHT22;13899;51.174;4.456;2023-04-01T18:42:19;11.10;99.90
25918;DHT22;13899;51.174;4.456;2023-04-01T18:52:42;10.40;99.90
25918;DHT22;13899;51.174;4.456;2023-04-01T18:57:54;10.80;99.90
25918;DHT22;13899;51.174;4.456;2023-04-01T19:00:26;10.90;99.90
25918;DHT22;13899;51.174;4.456;2023-04-01T19:03:12;10.90;99.90
25918;DHT22;13899;51.174;4.456;2023-04-01T19:05:45;10.90;99.90
25918;DHT22;13899;51.174;4.456;2023-04-01T19:08:33;11.40;99.90
25918;DHT22;13899;51.174;4.456;2023-04-01T19:18:55;11.70;99.90
25918;DHT22;13899;51.174;4.456;2023-04-01T19:21:32;11.90;99.90
25918;DHT22;13899;51.174;4.456;2023-04-01T19:31:52;11.90;99.90
25918;DHT22;13899;51.174;4.456;2023-04-01T19:34:40;11.90;99.90
25918;DHT22;13899;51.174;4.456;2023-04-01T19:42:51;12.00;99.90
25918;DHT22;13899;51.174;4.456;2023-04-01T19:50:55;12.20;99.90
25918;DHT22;13899;51.174;4.456;2023-04-01T19:53:37;12.40;99.90
25918;DHT22;13899;51.174;4.456;2023-04-01T19:56:14;12.50;99.90
25918;DHT22;13899;51.174;4.456;2023-04-01T20:02:39;11.80;99.90
25918;DHT22;13899;51.174;4.456;2023-04-01T20:04:49;11.60;99.90
25918;DHT22;13899;51.174;4.456;2023-04-01T20:08:09;11.70;99.90
25918;DHT22;13899;51.174;4.456;2023-04-01T20:13:27;11.80;99.90
25918;DHT22;13899;51.174;4.456;2023-04-01T20:16:09;11.50;99.90
25918;DHT22;13899;51.174;4.456;2023-04-01T20:18:41;11.40;99.90
25918;DHT22;13899;51.174;4.456;2023-04-01T20:24:02;11.50;99.90
25918;DHT22;13899;51.174;4.456;2023-04-01T20:26:37;11.40;99.90
25918;DHT22;13899;51.174;4.456;2023-04-01T20:32:14;11.10;99.90
25918;DHT22;13899;51.174;4.456;2023-04-01T20:38:19;11.10;99.90
25918;DHT22;13899;51.174;4.456;2023-04-01T20:40:51;11.10;99.90
25918;DHT22;13899;51.174;4.456;2023-04-01T20:43:50;11.30;99.90
25918;DHT22;13899;51.174;4.456;2023-04-01T20:46:20;11.00;99.90
25918;DHT22;13899;51.174;4.456;2023-04-01T20:54:46;11.10;99.90
25918;DHT22;13899;51.174;4.456;2023-04-01T20:57:49;11.10;99.90
25918;DHT22;13899;51.174;4.456;2023-04-01T21:16:47;10.60;99.90
25918;DHT22;13899;51.174;4.456;2023-04-01T21:19:31;10.70;99.90
25918;DHT22;13899;51.174;4.456;2023-04-01T21:41:57;10.90;99.90
25918;DHT22;13899;51.174;4.456;2023-04-01T21:44:47;10.80;99.90
25918;DHT22;13899;51.174;4.456;2023-04-01T22:07:15;10.60;99.90
25918;DHT22;13899;51.174;4.456;2023-04-01T22:10:04;10.60;99.90
25918;DHT22;13899;51.174;4.456;2023-04-01T22:12:54;10.50;99.90
25918;DHT22;13899;51.174;4.456;2023-04-01T22:18:34;10.70;99.90
25918;DHT22;13899;51.174;4.456;2023-04-01T22:21:10;10.70;99.90
25918;DHT22;13899;51.174;4.456;2023-04-01T22:31:39;10.30;99.90
25918;DHT22;13899;51.174;4.456;2023-04-01T22:34:26;10.00;99.90
25918;DHT22;13899;51.174;4.456;2023-04-01T22:36:57;10.00;99.90
25918;DHT22;13899;51.174;4.456;2023-04-01T22:47:30;10.20;99.90
25918;DHT22;13899;51.174;4.456;2023-04-01T22:50:07;10.20;99.90
25918;DHT22;13899;51.174;4.456;2023-04-01T22:52:43;10.30;99.90
25918;DHT22;13899;51.174;4.456;2023-04-01T22:55:28;10.20;99.90
25918;DHT22;13899;51.174;4.456;2023-04-01T22:58:24;10.20;99.90
25918;DHT22;13899;51.174;4.456;2023-04-01T23:00:56;10.10;99.90
25918;DHT22;13899;51.174;4.456;2023-04-01T23:03:28;10.00;99.90
25918;DHT22;13899;51.174;4.456;2023-04-01T23:06:00;9.80;99.90
25918;DHT22;13899;51.174;4.456;2023-04-01T23:11:27;9.80;99.90
25918;DHT22;13899;51.174;4.456;2023-04-01T23:22:59;9.80;99.90
25918;DHT22;13899;51.174;4.456;2023-04-01T23:36:10;9.90;99.90
25918;DHT22;13899;51.174;4.456;2023-04-01T23:38:38;10.20;99.90
25918;DHT22;13899;51.174;4.456;2023-04-01T23:41:07;10.20;99.90
25918;DHT22;13899;51.174;4.456;2023-04-01T23:43:37;10.10;99.90
25918;DHT22;13899;51.174;4.456;2023-04-01T23:46:05;9.60;99.90
25918;DHT22;13899;51.174;4.456;2023-04-01T23:48:41;9.60;99.90
25918;DHT22;13899;51.174;4.456;2023-04-01T23:51:28;9.50;99.90
25918;DHT22;13899;51.174;4.456;2023-04-01T23:54:03;9.80;99.90
25918;DHT22;13899;51.174;4.456;2023-04-01T23:56:38;10.00;99.90
25918;DHT22;13899;51.174;4.456;2023-04-01T23:59:16;9.50;99.90
